Time;durP1;ratioP1;P1;durP2;ratioP2;P2;SDS_P1;SDS_P2;PMS_P1;PMS_P2;Temp;Humidity;BMP_temperature;BMP_pressure;BME280_temperature;BME280_humidity;BME280_pressure;Samples;Min_cycle;Max_cycle;Signal;HPM_P1;HPM_P2
2021/09/25 00:00:15;;;;;;;8.60;4.63;;;16.60;99.90;;;;;;4998860;28;20234;-71
2021/09/25 00:02:43;;;;;;;8.30;4.80;;;16.60;99.90;;;;;;4999449;28;20245;-71
2021/09/25 00:05:12;;;;;;;9.43;4.87;;;16.60;99.90;;;;;;4986614;28;20233;-71
2021/09/25 00:07:40;;;;;;;7.60;4.67;;;16.60;99.90;;;;;;4996215;28;20325;-70
2021/09/25 00:10:09;;;;;;;8.87;4.77;;;16.50;99.90;;;;;;4998705;28;20265;-70
2021/09/25 00:12:37;;;;;;;6.60;5.10;;;16.50;99.90;;;;;;4998699;28;20244;-71
2021/09/25 00:15:07;;;;;;;9.43;5.00;;;16.50;99.90;;;;;;4994065;28;20629;-70
2021/09/25 00:17:35;;;;;;;8.83;4.97;;;16.50;99.90;;;;;;5002714;28;20236;-71
2021/09/25 00:20:04;;;;;;;8.63;5.17;;;16.40;99.90;;;;;;4999054;28;20321;-71
2021/09/25 00:22:32;;;;;;;9.77;5.67;;;16.40;99.90;;;;;;4987763;28;20717;-71
2021/09/25 00:25:02;;;;;;;8.90;5.10;;;16.40;99.90;;;;;;4988058;28;20881;-71
2021/09/25 00:27:30;;;;;;;10.47;5.37;;;16.40;99.90;;;;;;5000647;28;20237;-71
2021/09/25 00:30:13;;;;;;;8.93;5.10;;;16.30;99.90;;;;;;4997893;28;20224;-70
2021/09/25 00:32:42;;;;;;;7.20;4.97;;;16.30;99.90;;;;;;4996911;28;20606;-71
2021/09/25 00:35:11;;;;;;;10.67;5.13;;;16.30;99.90;;;;;;5000923;28;20230;-71
2021/09/25 00:37:40;;;;;;;9.60;6.03;;;16.30;99.90;;;;;;5000351;28;20245;-71
2021/09/25 00:40:10;;;;;;;10.00;5.50;;;16.20;99.90;;;;;;4995257;28;20905;-71
2021/09/25 00:42:39;;;;;;;7.80;4.73;;;16.20;99.90;;;;;;4990711;28;20233;-71
2021/09/25 00:45:09;;;;;;;8.97;5.33;;;16.30;99.90;;;;;;4983594;28;20239;-71
2021/09/25 00:47:39;;;;;;;10.47;6.13;;;16.30;99.90;;;;;;5002349;28;20261;-70
2021/09/25 00:50:09;;;;;;;9.17;5.50;;;16.30;99.90;;;;;;5000584;28;20241;-71
2021/09/25 00:52:37;;;;;;;10.60;5.70;;;16.30;99.90;;;;;;5002298;28;20241;-71
2021/09/25 00:55:06;;;;;;;11.53;6.00;;;16.20;99.90;;;;;;4998855;28;20237;-70
2021/09/25 00:57:34;;;;;;;9.33;5.80;;;16.30;99.90;;;;;;5002178;28;20241;-71
2021/09/25 01:00:04;;;;;;;10.57;6.10;;;16.20;99.90;;;;;;4990131;28;20257;-71
2021/09/25 01:02:32;;;;;;;9.10;5.60;;;16.20;99.90;;;;;;4962071;28;20237;-71
2021/09/25 01:05:03;;;;;;;10.00;6.10;;;16.30;99.90;;;;;;5002719;28;20299;-71
2021/09/25 01:07:32;;;;;;;10.07;6.10;;;16.20;99.90;;;;;;4997135;28;20295;-70
2021/09/25 01:10:00;;;;;;;10.60;6.20;;;16.20;99.90;;;;;;4991949;28;20320;-70
2021/09/25 01:12:29;;;;;;;11.57;6.70;;;16.30;99.90;;;;;;4993256;28;20275;-71
2021/09/25 01:14:57;;;;;;;9.97;6.07;;;16.20;99.90;;;;;;4995503;28;20241;-71
2021/09/25 01:17:25;;;;;;;11.33;6.77;;;16.20;99.90;;;;;;4998910;28;20226;-71
2021/09/25 01:19:53;;;;;;;10.77;6.10;;;16.20;99.90;;;;;;4990521;28;20677;-70
2021/09/25 01:22:23;;;;;;;11.30;6.93;;;16.10;99.90;;;;;;4991906;28;20262;-71
2021/09/25 01:24:51;;;;;;;9.27;6.40;;;16.10;99.90;;;;;;4998478;28;20559;-71
2021/09/25 01:27:19;;;;;;;13.67;6.90;;;16.20;99.90;;;;;;4987689;28;20736;-71
2021/09/25 01:29:48;;;;;;;12.30;7.60;;;16.10;99.90;;;;;;4987139;28;20776;-71
2021/09/25 01:32:17;;;;;;;10.37;6.67;;;16.10;99.90;;;;;;4996516;28;20237;-70
2021/09/25 01:34:46;;;;;;;14.63;7.80;;;16.10;99.90;;;;;;4996891;28;20238;-70
2021/09/25 01:37:14;;;;;;;13.80;8.27;;;16.10;99.90;;;;;;5001846;28;20713;-71
2021/09/25 01:39:43;;;;;;;9.73;7.57;;;16.00;99.90;;;;;;4984803;28;20240;-70
2021/09/25 01:42:12;;;;;;;12.07;7.57;;;16.00;99.90;;;;;;4987025;28;20242;-70
2021/09/25 01:44:40;;;;;;;12.33;8.13;;;16.10;99.90;;;;;;4987964;28;20332;-71
2021/09/25 01:47:08;;;;;;;14.20;8.17;;;16.10;99.90;;;;;;4982289;28;20233;-70
2021/09/25 01:49:48;;;;;;;10.90;7.80;;;16.10;99.90;;;;;;4991303;28;20697;-71
2021/09/25 01:52:18;;;;;;;15.30;8.17;;;16.10;99.90;;;;;;5001761;28;20257;-70
2021/09/25 01:54:48;;;;;;;10.23;7.87;;;16.10;99.90;;;;;;4988402;28;20744;-70
2021/09/25 01:57:16;;;;;;;10.43;7.37;;;16.10;99.90;;;;;;4995849;28;20636;-70
2021/09/25 01:59:44;;;;;;;11.60;8.30;;;16.20;99.90;;;;;;4987647;28;20238;-71
2021/09/25 02:02:13;;;;;;;12.27;7.93;;;16.10;99.90;;;;;;4988841;28;20238;-71
2021/09/25 02:04:47;;;;;;;10.80;8.40;;;16.10;99.90;;;;;;4992861;28;20776;-70
2021/09/25 02:07:16;;;;;;;10.13;7.30;;;16.10;99.90;;;;;;4984083;28;20334;-70
2021/09/25 02:09:45;;;;;;;10.30;7.60;;;16.10;99.90;;;;;;4993753;28;20353;-71
2021/09/25 02:12:14;;;;;;;14.10;8.40;;;16.10;99.90;;;;;;4992718;28;20233;-71
2021/09/25 02:14:43;;;;;;;14.90;8.67;;;16.10;99.90;;;;;;4989095;28;20273;-71
2021/09/25 02:17:11;;;;;;;12.40;8.93;;;16.00;99.90;;;;;;4992270;28;20237;-71
2021/09/25 02:19:39;;;;;;;11.17;8.30;;;16.00;99.90;;;;;;4989824;28;20624;-71
2021/09/25 02:22:07;;;;;;;13.10;8.73;;;16.00;99.90;;;;;;4992482;28;20705;-71
2021/09/25 02:24:36;;;;;;;13.33;9.00;;;16.00;99.90;;;;;;4994699;28;20809;-70
2021/09/25 02:27:05;;;;;;;10.90;8.47;;;16.00;99.90;;;;;;4989156;28;20241;-70
2021/09/25 02:29:34;;;;;;;11.77;8.80;;;16.00;99.90;;;;;;4986205;28;20741;-70
2021/09/25 02:32:02;;;;;;;13.33;8.70;;;15.90;99.90;;;;;;4990413;28;20315;-71
2021/09/25 02:34:31;;;;;;;13.33;9.13;;;16.00;99.90;;;;;;4982982;28;20713;-71
2021/09/25 02:36:59;;;;;;;11.80;9.27;;;16.00;99.90;;;;;;4988198;28;20657;-70
2021/09/25 02:39:28;;;;;;;11.47;9.27;;;15.90;99.90;;;;;;4990136;28;20304;-70
2021/09/25 02:41:57;;;;;;;12.77;9.13;;;15.90;99.90;;;;;;4991721;28;20237;-70
2021/09/25 02:44:25;;;;;;;14.63;10.10;;;15.90;99.90;;;;;;4994171;28;20269;-70
2021/09/25 02:46:56;;;;;;;14.27;10.13;;;16.00;99.90;;;;;;4982500;28;20337;-70
2021/09/25 02:49:24;;;;;;;17.67;10.60;;;15.90;99.90;;;;;;4994221;28;20508;-70
2021/09/25 02:51:52;;;;;;;14.23;10.87;;;15.90;99.90;;;;;;4991524;28;20770;-70
2021/09/25 02:54:20;;;;;;;13.70;10.73;;;16.00;99.90;;;;;;4988957;28;20613;-70
2021/09/25 02:56:48;;;;;;;14.27;10.97;;;16.00;99.90;;;;;;4991928;28;20266;-70
2021/09/25 02:59:16;;;;;;;12.57;10.23;;;15.90;99.90;;;;;;4991706;28;20568;-70
2021/09/25 03:01:45;;;;;;;15.13;11.67;;;15.90;99.90;;;;;;5000464;28;20406;-70
2021/09/25 03:04:16;;;;;;;15.63;12.17;;;16.00;99.90;;;;;;4994376;28;20280;-70
2021/09/25 03:06:44;;;;;;;14.80;12.00;;;16.00;99.90;;;;;;4992260;28;20249;-70
2021/09/25 03:09:12;;;;;;;14.33;11.27;;;16.00;99.90;;;;;;4979571;28;20238;-70
2021/09/25 03:11:40;;;;;;;13.17;11.73;;;15.90;99.90;;;;;;4988659;28;20243;-71
2021/09/25 03:14:09;;;;;;;14.77;12.40;;;15.90;99.90;;;;;;4998075;28;20229;-70
2021/09/25 03:16:37;;;;;;;14.03;11.97;;;16.00;99.90;;;;;;4987727;28;20230;-70
2021/09/25 03:19:06;;;;;;;14.97;12.00;;;15.90;99.90;;;;;;4994025;28;20246;-70
2021/09/25 03:21:35;;;;;;;17.17;11.83;;;16.00;99.90;;;;;;4989548;28;20328;-70
2021/09/25 03:24:04;;;;;;;16.27;13.43;;;16.00;99.90;;;;;;4994295;28;20268;-70
2021/09/25 03:26:32;;;;;;;14.77;12.47;;;16.10;99.90;;;;;;4996851;28;20253;-70
2021/09/25 03:29:00;;;;;;;15.27;13.30;;;16.00;99.90;;;;;;5013907;28;20674;-71
2021/09/25 03:31:28;;;;;;;13.97;12.53;;;16.00;99.90;;;;;;4988919;28;20230;-70
2021/09/25 03:33:57;;;;;;;13.83;12.37;;;16.00;99.90;;;;;;4994334;28;20257;-71
2021/09/25 03:36:25;;;;;;;16.97;13.17;;;15.90;99.90;;;;;;4992468;28;20238;-70
2021/09/25 03:38:55;;;;;;;16.57;13.93;;;16.00;99.90;;;;;;4994290;28;20320;-70
2021/09/25 03:41:23;;;;;;;16.93;15.00;;;16.00;99.90;;;;;;4994979;28;20238;-71
2021/09/25 03:43:52;;;;;;;18.23;15.33;;;16.00;99.90;;;;;;4998652;28;20265;-71
2021/09/25 03:46:21;;;;;;;18.87;15.13;;;16.00;99.90;;;;;;4997006;28;20249;-70
2021/09/25 03:48:49;;;;;;;15.43;13.80;;;16.00;99.90;;;;;;4994818;28;20300;-70
2021/09/25 03:51:17;;;;;;;19.93;15.47;;;16.00;99.90;;;;;;4995656;28;20245;-71
2021/09/25 03:53:45;;;;;;;17.17;14.57;;;16.00;99.90;;;;;;4998972;28;20332;-70
2021/09/25 03:56:15;;;;;;;17.17;13.40;;;16.00;99.90;;;;;;5005409;28;20241;-70
2021/09/25 03:58:44;;;;;;;16.23;14.20;;;16.00;99.90;;;;;;4985484;28;20246;-71
2021/09/25 04:01:12;;;;;;;20.03;14.97;;;16.00;99.90;;;;;;4992161;28;20229;-70
2021/09/25 04:03:41;;;;;;;17.07;15.27;;;16.10;99.90;;;;;;4991280;28;20230;-70
2021/09/25 04:06:10;;;;;;;16.53;14.30;;;16.00;99.90;;;;;;4991276;28;20261;-70
2021/09/25 04:08:38;;;;;;;18.97;15.53;;;16.00;99.90;;;;;;4998323;28;20230;-70
2021/09/25 04:11:07;;;;;;;21.33;15.77;;;16.00;99.90;;;;;;4995155;28;20757;-70
2021/09/25 04:13:36;;;;;;;19.03;15.10;;;16.00;99.90;;;;;;4997961;28;20234;-71
2021/09/25 04:16:05;;;;;;;22.00;16.33;;;16.00;99.90;;;;;;4993699;28;20253;-70
2021/09/25 04:18:33;;;;;;;20.87;17.27;;;16.10;99.90;;;;;;4994386;28;20733;-71
2021/09/25 04:21:01;;;;;;;19.67;16.17;;;16.00;99.90;;;;;;4994739;28;20237;-71
2021/09/25 04:23:29;;;;;;;23.63;17.00;;;16.00;99.90;;;;;;4986167;28;20249;-71
2021/09/25 04:25:57;;;;;;;18.97;15.93;;;16.00;99.90;;;;;;4992458;28;20496;-71
2021/09/25 04:28:25;;;;;;;23.97;18.07;;;16.10;99.90;;;;;;4990972;28;20253;-71
2021/09/25 04:30:55;;;;;;;22.53;17.50;;;16.10;99.90;;;;;;4985656;28;20230;-70
2021/09/25 04:33:23;;;;;;;24.80;17.13;;;16.10;99.90;;;;;;4993549;28;20918;-70
2021/09/25 04:35:51;;;;;;;23.20;18.33;;;16.10;99.90;;;;;;4998887;28;20260;-70
2021/09/25 04:38:19;;;;;;;27.53;18.50;;;16.10;99.90;;;;;;4991668;28;20234;-70
2021/09/25 04:40:47;;;;;;;20.97;17.03;;;16.10;99.90;;;;;;4995339;28;20761;-70
2021/09/25 04:43:15;;;;;;;24.07;17.90;;;16.10;99.90;;;;;;4991801;28;20241;-70
2021/09/25 04:45:43;;;;;;;29.33;18.83;;;16.10;99.90;;;;;;4994225;28;20245;-71
2021/09/25 04:48:13;;;;;;;25.57;19.53;;;16.00;99.90;;;;;;4991593;28;20230;-70
2021/09/25 04:50:41;;;;;;;25.67;19.27;;;16.00;99.90;;;;;;4993152;28;20263;-70
2021/09/25 04:53:12;;;;;;;27.10;19.07;;;16.10;99.90;;;;;;4988021;28;20226;-70
2021/09/25 04:55:40;;;;;;;24.10;18.53;;;16.00;99.90;;;;;;4985221;28;20331;-70
2021/09/25 04:58:08;;;;;;;31.73;19.50;;;16.10;99.90;;;;;;4990287;28;20696;-71
2021/09/25 05:00:37;;;;;;;25.57;18.10;;;16.10;99.90;;;;;;4993265;28;20280;-70
2021/09/25 05:03:05;;;;;;;24.07;17.70;;;16.10;99.90;;;;;;4989466;28;20529;-70
2021/09/25 05:05:35;;;;;;;26.93;18.27;;;16.10;99.90;;;;;;4983604;28;20329;-71
2021/09/25 05:08:03;;;;;;;29.67;17.83;;;16.00;99.90;;;;;;4984476;28;20269;-70
2021/09/25 05:10:32;;;;;;;27.57;18.77;;;16.10;99.90;;;;;;4982903;28;20282;-70
2021/09/25 05:13:00;;;;;;;23.33;17.40;;;16.10;99.90;;;;;;4976626;28;20471;-70
2021/09/25 05:15:28;;;;;;;24.57;18.10;;;16.10;99.90;;;;;;4973018;28;20241;-70
2021/09/25 05:17:56;;;;;;;23.27;16.63;;;16.10;99.90;;;;;;4977070;28;20284;-70
2021/09/25 05:20:25;;;;;;;24.23;18.13;;;16.10;99.90;;;;;;4981430;28;20287;-70
2021/09/25 05:22:54;;;;;;;24.40;17.70;;;16.10;99.90;;;;;;4976595;28;20245;-70
2021/09/25 05:25:23;;;;;;;24.87;17.63;;;16.00;99.90;;;;;;4974880;28;20242;-70
2021/09/25 05:27:51;;;;;;;22.80;17.60;;;16.00;99.90;;;;;;4981501;28;20242;-70
2021/09/25 05:30:20;;;;;;;26.93;17.77;;;16.00;99.90;;;;;;4973459;28;20241;-70
2021/09/25 05:32:48;;;;;;;25.97;17.47;;;16.00;99.90;;;;;;4976291;28;20252;-70
2021/09/25 05:35:16;;;;;;;26.17;16.93;;;16.00;99.90;;;;;;4974738;28;20237;-70
2021/09/25 05:37:44;;;;;;;22.07;17.27;;;16.00;99.90;;;;;;4977439;28;20613;-71
2021/09/25 05:40:14;;;;;;;23.27;16.10;;;16.10;99.90;;;;;;4972646;28;20242;-70
2021/09/25 05:42:42;;;;;;;26.87;15.93;;;16.00;99.90;;;;;;4975377;28;20241;-71
2021/09/25 05:45:11;;;;;;;21.40;16.27;;;16.00;99.90;;;;;;4980514;28;20237;-71
2021/09/25 05:47:40;;;;;;;22.07;15.80;;;16.00;99.90;;;;;;4981968;28;20245;-70
2021/09/25 05:50:09;;;;;;;19.77;15.43;;;16.00;99.90;;;;;;4987574;28;20237;-70
2021/09/25 05:52:37;;;;;;;22.20;15.63;;;16.00;99.90;;;;;;4978133;28;20245;-70
2021/09/25 05:55:07;;;;;;;19.23;14.87;;;16.00;99.90;;;;;;4972923;28;20237;-71
2021/09/25 05:57:36;;;;;;;20.73;15.07;;;16.10;99.90;;;;;;4980938;28;22077;-71
2021/09/25 06:00:06;;;;;;;19.13;14.83;;;16.10;99.90;;;;;;4974568;28;20597;-71
2021/09/25 06:02:40;;;;;;;20.33;14.03;;;16.10;99.90;;;;;;4978220;28;20237;-71
2021/09/25 06:05:10;;;;;;;16.57;13.13;;;16.20;99.90;;;;;;4970164;28;20317;-71
2021/09/25 06:07:38;;;;;;;17.17;13.97;;;16.10;99.90;;;;;;4983779;28;20244;-70
2021/09/25 06:10:07;;;;;;;19.33;14.07;;;16.10;99.90;;;;;;4974819;28;20241;-70
2021/09/25 06:12:37;;;;;;;17.77;14.23;;;16.10;99.90;;;;;;4977098;28;20320;-70
2021/09/25 06:15:07;;;;;;;20.30;13.90;;;16.20;99.90;;;;;;4971682;28;20241;-71
2021/09/25 06:17:36;;;;;;;21.37;14.40;;;16.20;99.90;;;;;;4971331;28;20268;-70
2021/09/25 06:20:09;;;;;;;18.23;13.80;;;16.20;99.90;;;;;;4977666;28;20241;-70
2021/09/25 06:22:38;;;;;;;20.37;13.57;;;16.20;99.90;;;;;;4976070;28;20248;-70
2021/09/25 06:25:06;;;;;;;17.93;13.23;;;16.30;99.90;;;;;;4973600;28;20781;-70
2021/09/25 06:27:37;;;;;;;18.03;13.07;;;16.30;99.90;;;;;;4974469;28;20558;-70
2021/09/25 06:30:07;;;;;;;19.67;12.30;;;16.30;99.90;;;;;;4975121;28;20265;-70
2021/09/25 06:32:35;;;;;;;20.33;13.67;;;16.30;99.90;;;;;;4978541;28;20246;-70
2021/09/25 06:35:04;;;;;;;18.27;13.63;;;16.30;99.90;;;;;;4974288;28;20580;-70
2021/09/25 06:37:33;;;;;;;21.73;12.90;;;16.30;99.90;;;;;;4978732;28;20245;-70
2021/09/25 06:40:01;;;;;;;20.50;12.47;;;16.40;99.90;;;;;;4976891;28;20249;-70
2021/09/25 06:42:33;;;;;;;19.00;12.70;;;16.40;99.90;;;;;;4978579;28;20237;-70
2021/09/25 06:45:02;;;;;;;19.37;12.17;;;16.40;99.90;;;;;;4975168;28;20273;-70
2021/09/25 06:47:33;;;;;;;18.40;12.03;;;16.50;99.90;;;;;;4974658;28;20299;-70
2021/09/25 06:50:02;;;;;;;20.13;11.17;;;16.50;99.90;;;;;;4984074;28;20241;-71
2021/09/25 06:52:30;;;;;;;15.07;11.07;;;16.50;99.90;;;;;;4984785;28;20237;-71
2021/09/25 06:54:58;;;;;;;15.33;11.03;;;16.60;99.90;;;;;;4986454;28;20672;-71
2021/09/25 06:57:29;;;;;;;17.97;10.77;;;16.60;99.90;;;;;;4991985;28;20252;-71
2021/09/25 06:59:58;;;;;;;18.47;11.87;;;16.60;99.90;;;;;;4994714;28;20853;-71
2021/09/25 07:02:28;;;;;;;14.90;11.50;;;16.60;99.90;;;;;;4984828;28;20260;-70
2021/09/25 07:04:57;;;;;;;17.77;11.97;;;16.60;99.90;;;;;;4995094;28;20233;-70
2021/09/25 07:07:25;;;;;;;17.70;11.07;;;16.70;99.90;;;;;;4996489;28;20305;-70
2021/09/25 07:09:53;;;;;;;17.03;10.93;;;16.70;99.90;;;;;;4994086;28;20636;-71
2021/09/25 07:12:22;;;;;;;19.80;10.90;;;16.70;99.90;;;;;;4989972;28;20256;-71
2021/09/25 07:14:50;;;;;;;13.57;9.40;;;16.70;99.90;;;;;;4994776;28;20758;-71
2021/09/25 07:17:18;;;;;;;18.80;10.80;;;16.80;99.90;;;;;;4995710;28;20252;-70
2021/09/25 07:19:47;;;;;;;16.47;11.47;;;16.70;99.90;;;;;;4987081;28;20777;-71
2021/09/25 07:22:15;;;;;;;14.33;10.30;;;16.70;99.90;;;;;;4989793;28;20230;-71
2021/09/25 07:24:43;;;;;;;18.23;11.17;;;16.60;99.90;;;;;;4980901;28;20245;-71
2021/09/25 07:27:12;;;;;;;16.73;10.67;;;16.60;99.90;;;;;;4983048;28;20326;-71
2021/09/25 07:29:40;;;;;;;17.70;11.20;;;16.60;99.90;;;;;;5001833;28;20318;-71
2021/09/25 07:32:08;;;;;;;17.30;11.90;;;16.60;99.90;;;;;;4988505;28;20745;-71
2021/09/25 07:34:37;;;;;;;19.03;11.23;;;16.70;99.90;;;;;;4984167;28;20749;-71
2021/09/25 07:37:06;;;;;;;17.47;10.83;;;16.70;99.90;;;;;;4993618;28;20344;-71
2021/09/25 07:39:34;;;;;;;18.03;11.40;;;16.70;99.90;;;;;;4994498;28;20253;-71
2021/09/25 07:42:03;;;;;;;14.83;9.90;;;16.80;99.90;;;;;;4989919;28;20231;-71
2021/09/25 07:44:31;;;;;;;15.20;11.23;;;16.90;99.90;;;;;;4994600;28;20241;-71
2021/09/25 07:46:59;;;;;;;15.63;10.53;;;17.00;99.90;;;;;;4991009;28;20248;-71
2021/09/25 07:49:27;;;;;;;16.00;11.50;;;17.10;99.90;;;;;;4991887;28;20237;-71
2021/09/25 07:51:56;;;;;;;15.67;10.50;;;17.20;99.90;;;;;;4990390;28;20225;-71
2021/09/25 07:54:25;;;;;;;14.17;10.40;;;17.20;99.90;;;;;;4994890;28;20274;-71
2021/09/25 07:56:53;;;;;;;19.53;10.90;;;17.30;99.90;;;;;;4991734;28;20248;-70
2021/09/25 07:59:21;;;;;;;14.73;10.47;;;17.30;99.90;;;;;;4993568;28;20238;-70
2021/09/25 08:01:49;;;;;;;16.93;10.10;;;17.40;99.90;;;;;;4992070;28;20237;-71
2021/09/25 08:04:18;;;;;;;15.63;10.10;;;17.40;99.90;;;;;;4995765;28;20300;-71
2021/09/25 08:06:46;;;;;;;15.23;10.10;;;17.40;99.90;;;;;;5001140;28;20329;-71
2021/09/25 08:09:14;;;;;;;16.33;10.47;;;17.50;99.90;;;;;;4991394;28;20645;-71
2021/09/25 08:11:44;;;;;;;20.00;9.80;;;17.60;99.90;;;;;;4995836;28;20261;-71
2021/09/25 08:14:12;;;;;;;12.80;9.07;;;17.60;99.90;;;;;;4998627;28;20759;-71
2021/09/25 08:16:40;;;;;;;13.27;9.90;;;17.70;99.90;;;;;;4989204;28;20238;-71
2021/09/25 08:19:08;;;;;;;17.60;10.67;;;17.80;99.90;;;;;;4990939;28;20242;-70
2021/09/25 08:21:36;;;;;;;13.27;9.13;;;17.90;99.90;;;;;;4989725;28;20230;-71
2021/09/25 08:24:05;;;;;;;16.00;9.53;;;18.00;99.90;;;;;;4999234;28;20237;-70
2021/09/25 08:26:33;;;;;;;18.00;9.97;;;18.00;99.90;;;;;;4990716;28;20237;-71
2021/09/25 08:29:04;;;;;;;15.03;9.07;;;18.00;99.90;;;;;;4984068;28;20253;-70
2021/09/25 08:31:32;;;;;;;14.57;9.47;;;18.10;99.90;;;;;;4999153;28;20244;-71
2021/09/25 08:34:00;;;;;;;15.07;9.37;;;18.10;99.90;;;;;;4996950;28;20260;-70
2021/09/25 08:36:29;;;;;;;16.97;9.73;;;18.10;99.90;;;;;;5010813;28;20230;-71
2021/09/25 08:39:08;;;;;;;13.43;9.70;;;18.10;99.90;;;;;;4999394;28;20253;-71
2021/09/25 08:41:37;;;;;;;19.17;10.10;;;18.20;99.90;;;;;;4995279;28;20240;-70
2021/09/25 08:44:07;;;;;;;15.43;9.90;;;18.20;99.90;;;;;;4991694;28;21024;-70
2021/09/25 08:46:35;;;;;;;16.87;10.00;;;18.30;99.90;;;;;;4993406;28;20817;-70
2021/09/25 08:49:06;;;;;;;12.07;9.43;;;18.30;99.90;;;;;;4996023;28;20243;-70
2021/09/25 08:51:35;;;;;;;16.57;9.53;;;18.40;99.90;;;;;;4991549;28;20240;-70
2021/09/25 08:54:04;;;;;;;14.03;8.70;;;18.50;99.90;;;;;;4996442;28;20265;-71
2021/09/25 08:56:32;;;;;;;15.37;9.60;;;18.60;99.90;;;;;;4988343;28;20243;-70
2021/09/25 08:59:01;;;;;;;14.07;9.37;;;18.60;99.90;;;;;;5001600;28;20350;-70
2021/09/25 09:01:30;;;;;;;16.27;9.07;;;18.80;99.90;;;;;;4985029;28;20238;-71
2021/09/25 09:03:59;;;;;;;14.30;8.97;;;18.90;99.90;;;;;;4981676;28;20247;-70
2021/09/25 09:06:30;;;;;;;14.30;9.27;;;19.00;99.90;;;;;;4983566;28;20245;-70
2021/09/25 09:09:02;;;;;;;16.03;10.20;;;19.00;99.90;;;;;;4975987;28;20783;-70
2021/09/25 09:11:31;;;;;;;16.90;9.43;;;19.10;99.90;;;;;;4988111;28;20262;-70
2021/09/25 09:14:02;;;;;;;14.17;9.40;;;19.10;99.90;;;;;;4977972;28;20255;-70
2021/09/25 09:16:32;;;;;;;15.23;9.30;;;19.10;99.90;;;;;;4977819;28;20328;-70
2021/09/25 09:19:01;;;;;;;13.77;9.20;;;19.20;99.90;;;;;;4981317;28;20255;-70
2021/09/25 09:21:30;;;;;;;12.50;8.73;;;19.30;99.90;;;;;;4980205;28;20244;-70
2021/09/25 09:24:07;;;;;;;14.13;8.97;;;19.30;99.90;;;;;;4975364;28;20251;-70
2021/09/25 09:26:37;;;;;;;13.87;8.63;;;19.50;99.90;;;;;;4976907;28;20717;-70
2021/09/25 09:29:07;;;;;;;13.40;8.43;;;19.50;99.90;;;;;;4976434;28;20578;-70
2021/09/25 09:31:38;;;;;;;14.20;8.50;;;19.50;99.90;;;;;;4985699;28;20264;-70
2021/09/25 09:34:08;;;;;;;16.83;9.20;;;19.50;99.90;;;;;;4973059;28;20253;-70
2021/09/25 09:36:38;;;;;;;15.73;9.50;;;19.60;99.90;;;;;;4983435;28;20670;-70
2021/09/25 09:39:08;;;;;;;15.13;9.17;;;19.50;99.90;;;;;;4977705;28;20751;-70
2021/09/25 09:41:41;;;;;;;14.97;9.03;;;19.50;99.90;;;;;;4978586;28;20232;-71
2021/09/25 09:44:12;;;;;;;14.00;9.13;;;19.50;99.90;;;;;;4972999;28;20715;-70
2021/09/25 09:46:43;;;;;;;18.10;9.07;;;19.40;99.90;;;;;;4973566;28;20332;-70
2021/09/25 09:49:15;;;;;;;13.67;8.77;;;19.50;99.90;;;;;;4977223;28;20647;-70
2021/09/25 09:51:47;;;;;;;18.20;8.93;;;19.70;99.90;;;;;;4978672;28;20312;-70
2021/09/25 09:54:36;;;;;;;;;;;19.90;99.90;;;;;;4180684;28;10001998;-70
2021/09/25 09:57:08;;;;;;;14.23;8.70;;;20.20;99.90;;;;;;2398278;28;10002090;-70
2021/09/25 09:59:37;;;;;;;13.40;8.73;;;20.20;99.90;;;;;;4977204;28;21109;-70
2021/09/25 10:02:08;;;;;;;15.00;8.67;;;20.20;99.90;;;;;;4974494;28;20583;-70
2021/09/25 10:04:37;;;;;;;15.37;9.60;;;20.20;99.90;;;;;;4979086;28;20326;-70
2021/09/25 10:07:06;;;;;;;14.47;9.53;;;20.20;99.90;;;;;;4972425;28;20255;-70
2021/09/25 10:09:36;;;;;;;14.27;8.93;;;20.10;99.90;;;;;;4980987;28;20247;-70
2021/09/25 10:12:06;;;;;;;13.13;9.17;;;20.10;99.90;;;;;;4972586;28;20330;-70
2021/09/25 10:14:36;;;;;;;13.93;9.60;;;20.10;99.90;;;;;;4982253;28;20276;-70
2021/09/25 10:17:09;;;;;;;18.00;9.30;;;20.10;99.90;;;;;;4974883;28;20374;-70
2021/09/25 10:19:39;;;;;;;14.50;8.77;;;20.10;99.90;;;;;;4974299;28;20244;-70
2021/09/25 10:22:11;;;;;;;11.07;8.23;;;20.00;99.90;;;;;;4968894;28;20253;-70
2021/09/25 10:24:43;;;;;;;17.83;10.13;;;20.00;99.90;;;;;;4974051;28;20854;-70
2021/09/25 10:27:11;;;;;;;15.50;8.60;;;20.00;99.90;;;;;;4975972;28;20799;-70
2021/09/25 10:29:44;;;;;;;15.10;8.30;;;20.00;99.90;;;;;;4975293;28;20240;-70
2021/09/25 10:32:20;;;;;;;11.47;7.87;;;20.20;99.90;;;;;;4981609;28;21263;-70
2021/09/25 10:35:09;;;;;;;13.63;8.70;;;20.30;99.90;;;;;;4976758;28;20259;-70
2021/09/25 10:37:40;;;;;;;11.73;8.27;;;20.40;99.90;;;;;;4978970;28;20265;-70
2021/09/25 10:40:31;;;;;;;15.17;8.57;;;20.40;99.90;;;;;;4978932;28;20264;-70
2021/09/25 10:43:04;;;;;;;13.37;8.73;;;20.30;99.90;;;;;;4976563;28;20350;-70
2021/09/25 10:45:34;;;;;;;15.50;9.60;;;20.30;99.90;;;;;;4982660;28;20540;-70
2021/09/25 10:48:10;;;;;;;12.17;10.07;;;20.20;99.90;;;;;;4980204;28;20257;-70
2021/09/25 10:50:42;;;;;;;16.70;9.50;;;20.20;99.90;;;;;;4976651;28;20251;-70
2021/09/25 10:53:13;;;;;;;10.17;8.27;;;20.30;99.90;;;;;;4981453;28;20734;-70
2021/09/25 10:55:44;;;;;;;12.80;8.80;;;20.60;99.90;;;;;;4986710;28;20704;-70
2021/09/25 10:58:28;;;;;;;11.63;8.53;;;20.80;99.90;;;;;;4982875;28;20319;-70
2021/09/25 11:01:02;;;;;;;11.07;8.13;;;20.80;99.90;;;;;;5007540;28;20453;-70
2021/09/25 11:03:55;;;;;;;11.27;8.57;;;20.90;99.90;;;;;;4992529;28;20720;-70
2021/09/25 11:06:30;;;;;;;11.73;9.37;;;20.90;99.90;;;;;;4995308;28;20892;-70
2021/09/25 11:08:59;;;;;;;14.37;8.73;;;21.00;99.90;;;;;;4989399;28;20334;-70
2021/09/25 11:11:34;;;;;;;12.63;8.17;;;21.10;99.90;;;;;;4993606;28;20740;-70
2021/09/25 11:14:11;;;;;;;12.77;9.13;;;21.20;99.90;;;;;;4983557;28;20683;-70
2021/09/25 11:16:47;;;;;;;13.10;8.33;;;21.20;99.90;;;;;;4984281;28;20236;-70
2021/09/25 11:19:38;;;;;;;10.23;8.20;;;21.30;99.90;;;;;;4985861;28;20302;-70
2021/09/25 11:22:08;;;;;;;11.83;8.70;;;21.30;99.90;;;;;;4986095;28;20273;-70
2021/09/25 11:24:39;;;;;;;9.90;8.07;;;21.20;99.90;;;;;;4990193;28;20234;-70
2021/09/25 11:27:12;;;;;;;12.00;9.33;;;21.20;99.90;;;;;;4977218;28;20246;-70
2021/09/25 11:30:01;;;;;;;12.17;8.50;;;21.10;99.90;;;;;;4987439;28;20232;-70
2021/09/25 11:32:39;;;;;;;11.53;8.40;;;21.10;99.90;;;;;;4990148;28;20613;-70
2021/09/25 11:35:11;;;;;;;9.10;7.60;;;21.20;99.90;;;;;;4989631;28;20246;-70
2021/09/25 11:37:54;;;;;;;12.10;8.70;;;21.40;99.90;;;;;;4990233;28;20240;-70
2021/09/25 11:40:25;;;;;;;11.07;7.67;;;21.50;99.90;;;;;;4992720;28;20926;-70
2021/09/25 11:43:00;;;;;;;10.73;7.93;;;21.70;99.90;;;;;;4983523;28;20332;-70
2021/09/25 11:45:30;;;;;;;9.40;7.23;;;21.80;99.90;;;;;;4999950;28;20728;-70
2021/09/25 11:47:59;;;;;;;11.87;7.17;;;21.80;99.90;;;;;;4991539;28;20237;-70
2021/09/25 11:50:32;;;;;;;11.37;7.37;;;21.60;99.90;;;;;;4991474;28;20260;-70
2021/09/25 11:53:03;;;;;;;7.90;6.97;;;21.60;99.90;;;;;;4993557;28;20637;-70
2021/09/25 11:55:33;;;;;;;8.23;6.40;;;21.50;99.90;;;;;;4987839;28;20265;-70
2021/09/25 11:58:05;;;;;;;9.77;6.27;;;21.60;99.90;;;;;;4986949;28;20260;-70
2021/09/25 12:00:36;;;;;;;8.20;6.67;;;21.60;99.90;;;;;;4987072;28;20241;-70
2021/09/25 12:03:06;;;;;;;8.80;6.40;;;21.70;99.90;;;;;;4991121;28;20340;-70
2021/09/25 12:05:39;;;;;;;9.27;6.73;;;22.00;99.90;;;;;;4990094;28;20280;-70
2021/09/25 12:08:09;;;;;;;8.30;6.70;;;22.30;99.90;;;;;;4988714;28;20636;-70
2021/09/25 12:10:39;;;;;;;7.97;7.17;;;22.90;99.90;;;;;;4983831;28;20327;-70
2021/09/25 12:13:10;;;;;;;8.63;6.83;;;23.10;99.90;;;;;;4989360;28;20245;-70
2021/09/25 12:16:01;;;;;;;11.20;7.43;;;23.00;99.90;;;;;;4977818;28;20245;-70
2021/09/25 12:18:29;;;;;;;6.67;5.97;;;22.70;99.90;;;;;;4962845;28;20381;-70
2021/09/25 12:21:02;;;;;;;7.17;6.30;;;22.40;99.90;;;;;;4970280;28;20240;-70
2021/09/25 12:23:32;;;;;;;7.17;6.03;;;22.40;99.90;;;;;;4957531;28;20272;-70
2021/09/25 12:26:01;;;;;;;7.43;6.20;;;22.40;99.90;;;;;;4961222;28;20254;-70
2021/09/25 12:28:44;;;;;;;7.30;5.87;;;22.40;99.90;;;;;;4959634;28;20446;-70
2021/09/25 12:31:18;;;;;;;10.37;5.47;;;22.50;99.90;;;;;;4975992;28;20248;-70
2021/09/25 12:33:49;;;;;;;7.63;5.10;;;22.60;99.90;;;;;;4975143;28;20674;-70
2021/09/25 12:36:19;;;;;;;7.20;5.87;;;22.60;99.90;;;;;;4987036;28;20809;-70
2021/09/25 12:38:49;;;;;;;6.90;5.17;;;22.70;99.90;;;;;;4985447;28;20673;-70
2021/09/25 12:41:20;;;;;;;7.70;5.87;;;22.70;99.90;;;;;;4985275;28;20296;-69
2021/09/25 12:43:51;;;;;;;8.60;6.30;;;22.70;99.90;;;;;;4995789;28;20612;-70
2021/09/25 12:46:25;;;;;;;6.77;5.47;;;22.50;99.90;;;;;;4991990;28;20237;-69